Boardman, Ohio
Current Conditions -  °F | °C
As of 6:24 AM on Thursday 23 Oct 2014 (Local Time) from KYNG Reporting Station
Broken Clouds Broken Clouds  
Wind Chill: 38°   Ceiling: 1600
Heat Index: 42°   Visibility: 10mi
Dew Point: 41°   Wind: 6mph
Humidity: 96%   Direction: 340°NNW
Pressure: 30.16"   Gusts: NA
Location:  41.02°N, 80.66°W
Report Text: KYNG 231024Z 34005KT 10SM BKN016 06/05 A3016 RMK AO2 T00560050
Loading
Personal Weather Stations






























Interactive Weather Map
Tropical Storm Tracking
New forecast layout! Learn more

10-Day Weather Forecast

Advertisements
Track Severe Weather on mobile